sensor_id;sensor_type;location;lat;lon;timestamp;P1;durP1;ratioP1;P2;durP2;ratioP2
39276;SDS011;63149;48.086;-1.606;2023-05-17T05:01:14;7.97;;;2.70;;
39276;SDS011;63149;48.086;-1.606;2023-05-17T05:03:41;4.47;;;2.10;;
39276;SDS011;63149;48.086;-1.606;2023-05-17T05:06:08;5.18;;;2.58;;
39276;SDS011;63149;48.086;-1.606;2023-05-17T05:08:36;3.70;;;2.60;;
39276;SDS011;63149;48.086;-1.606;2023-05-17T05:11:04;3.17;;;2.10;;
39276;SDS011;63149;48.086;-1.606;2023-05-17T05:13:31;11.13;;;3.30;;
39276;SDS011;63149;48.086;-1.606;2023-05-17T05:15:58;7.28;;;3.97;;
39276;SDS011;63149;48.086;-1.606;2023-05-17T05:18:27;4.85;;;2.80;;
39276;SDS011;63149;48.086;-1.606;2023-05-17T05:20:54;4.18;;;2.75;;
39276;SDS011;63149;48.086;-1.606;2023-05-17T05:23:21;9.77;;;3.38;;
39276;SDS011;63149;48.086;-1.606;2023-05-17T05:25:48;6.22;;;3.10;;
39276;SDS011;63149;48.086;-1.606;2023-05-17T05:28:15;17.98;;;4.60;;
39276;SDS011;63149;48.086;-1.606;2023-05-17T05:30:43;10.68;;;3.95;;
39276;SDS011;63149;48.086;-1.606;2023-05-17T05:33:10;7.03;;;3.22;;
39276;SDS011;63149;48.086;-1.606;2023-05-17T05:35:38;10.73;;;3.45;;
39276;SDS011;63149;48.086;-1.606;2023-05-17T05:38:06;7.53;;;3.40;;
39276;SDS011;63149;48.086;-1.606;2023-05-17T05:40:33;6.78;;;4.13;;
39276;SDS011;63149;48.086;-1.606;2023-05-17T05:43:00;8.82;;;4.20;;
39276;SDS011;63149;48.086;-1.606;2023-05-17T05:45:27;9.50;;;4.25;;
39276;SDS011;63149;48.086;-1.606;2023-05-17T05:47:54;15.90;;;4.80;;
39276;SDS011;63149;48.086;-1.606;2023-05-17T05:50:21;8.55;;;4.20;;
39276;SDS011;63149;48.086;-1.606;2023-05-17T05:52:50;14.75;;;4.97;;
39276;SDS011;63149;48.086;-1.606;2023-05-17T05:55:17;6.70;;;3.97;;
39276;SDS011;63149;48.086;-1.606;2023-05-17T05:57:44;8.15;;;4.53;;
39276;SDS011;63149;48.086;-1.606;2023-05-17T06:00:12;9.25;;;4.75;;
39276;SDS011;63149;48.086;-1.606;2023-05-17T06:02:41;19.75;;;5.35;;
39276;SDS011;63149;48.086;-1.606;2023-05-17T06:05:08;10.45;;;4.65;;
39276;SDS011;63149;48.086;-1.606;2023-05-17T06:07:35;11.95;;;4.80;;
39276;SDS011;63149;48.086;-1.606;2023-05-17T06:10:04;11.00;;;5.00;;
39276;SDS011;63149;48.086;-1.606;2023-05-17T06:12:32;9.88;;;5.28;;
39276;SDS011;63149;48.086;-1.606;2023-05-17T06:14:59;10.88;;;5.65;;
39276;SDS011;63149;48.086;-1.606;2023-05-17T06:17:26;15.38;;;5.43;;
39276;SDS011;63149;48.086;-1.606;2023-05-17T06:19:53;12.77;;;5.43;;
39276;SDS011;63149;48.086;-1.606;2023-05-17T06:22:20;10.63;;;5.72;;
39276;SDS011;63149;48.086;-1.606;2023-05-17T06:24:47;14.57;;;4.85;;
39276;SDS011;63149;48.086;-1.606;2023-05-17T06:27:16;10.23;;;5.25;;
39276;SDS011;63149;48.086;-1.606;2023-05-17T06:29:43;8.93;;;4.88;;
39276;SDS011;63149;48.086;-1.606;2023-05-17T06:32:10;13.73;;;6.40;;
39276;SDS011;63149;48.086;-1.606;2023-05-17T06:34:38;13.77;;;5.60;;
39276;SDS011;63149;48.086;-1.606;2023-05-17T06:37:05;19.88;;;6.15;;
39276;SDS011;63149;48.086;-1.606;2023-05-17T06:39:32;11.02;;;5.05;;
39276;SDS011;63149;48.086;-1.606;2023-05-17T06:41:59;11.77;;;5.30;;
39276;SDS011;63149;48.086;-1.606;2023-05-17T06:44:28;13.07;;;4.85;;
39276;SDS011;63149;48.086;-1.606;2023-05-17T06:46:55;17.70;;;6.20;;
39276;SDS011;63149;48.086;-1.606;2023-05-17T06:49:24;10.55;;;4.57;;
39276;SDS011;63149;48.086;-1.606;2023-05-17T06:51:52;18.52;;;5.03;;
39276;SDS011;63149;48.086;-1.606;2023-05-17T06:54:21;11.48;;;4.78;;
39276;SDS011;63149;48.086;-1.606;2023-05-17T06:56:48;13.43;;;5.72;;
39276;SDS011;63149;48.086;-1.606;2023-05-17T06:59:16;13.73;;;6.43;;
39276;SDS011;63149;48.086;-1.606;2023-05-17T07:01:44;9.73;;;5.18;;
39276;SDS011;63149;48.086;-1.606;2023-05-17T07:04:11;9.48;;;4.72;;
39276;SDS011;63149;48.086;-1.606;2023-05-17T07:06:38;17.80;;;5.88;;
39276;SDS011;63149;48.086;-1.606;2023-05-17T07:09:06;9.23;;;4.60;;
39276;SDS011;63149;48.086;-1.606;2023-05-17T07:11:33;11.02;;;5.10;;
39276;SDS011;63149;48.086;-1.606;2023-05-17T07:14:00;11.05;;;5.28;;
39276;SDS011;63149;48.086;-1.606;2023-05-17T07:16:27;16.67;;;5.70;;
39276;SDS011;63149;48.086;-1.606;2023-05-17T07:18:56;12.30;;;4.82;;
39276;SDS011;63149;48.086;-1.606;2023-05-17T07:21:23;11.52;;;5.15;;
39276;SDS011;63149;48.086;-1.606;2023-05-17T07:23:50;10.65;;;5.25;;
39276;SDS011;63149;48.086;-1.606;2023-05-17T07:26:17;11.50;;;5.25;;
39276;SDS011;63149;48.086;-1.606;2023-05-17T07:28:45;12.05;;;5.60;;
39276;SDS011;63149;48.086;-1.606;2023-05-17T07:31:12;13.82;;;5.72;;
39276;SDS011;63149;48.086;-1.606;2023-05-17T07:33:40;10.90;;;5.20;;
39276;SDS011;63149;48.086;-1.606;2023-05-17T07:36:08;14.77;;;5.75;;
39276;SDS011;63149;48.086;-1.606;2023-05-17T07:38:35;11.50;;;5.25;;
39276;SDS011;63149;48.086;-1.606;2023-05-17T07:41:03;11.68;;;4.72;;
39276;SDS011;63149;48.086;-1.606;2023-05-17T07:43:33;14.82;;;5.32;;
39276;SDS011;63149;48.086;-1.606;2023-05-17T07:46:00;14.02;;;5.10;;
39276;SDS011;63149;48.086;-1.606;2023-05-17T07:48:27;12.25;;;4.18;;
39276;SDS011;63149;48.086;-1.606;2023-05-17T07:50:55;16.10;;;4.82;;
39276;SDS011;63149;48.086;-1.606;2023-05-17T07:53:23;16.92;;;5.20;;
39276;SDS011;63149;48.086;-1.606;2023-05-17T07:55:50;10.55;;;4.65;;
39276;SDS011;63149;48.086;-1.606;2023-05-17T07:58:18;14.93;;;5.00;;
39276;SDS011;63149;48.086;-1.606;2023-05-17T08:00:45;11.85;;;5.10;;
39276;SDS011;63149;48.086;-1.606;2023-05-17T08:03:13;12.35;;;3.63;;
39276;SDS011;63149;48.086;-1.606;2023-05-17T08:05:40;12.10;;;3.75;;
39276;SDS011;63149;48.086;-1.606;2023-05-17T08:08:08;10.48;;;3.80;;
39276;SDS011;63149;48.086;-1.606;2023-05-17T08:10:36;10.02;;;4.30;;
39276;SDS011;63149;48.086;-1.606;2023-05-17T08:13:04;15.55;;;4.30;;
39276;SDS011;63149;48.086;-1.606;2023-05-17T08:15:31;9.57;;;4.10;;
39276;SDS011;63149;48.086;-1.606;2023-05-17T08:17:59;10.45;;;3.75;;
39276;SDS011;63149;48.086;-1.606;2023-05-17T08:20:26;11.98;;;4.07;;
39276;SDS011;63149;48.086;-1.606;2023-05-17T08:22:53;9.07;;;3.80;;
39276;SDS011;63149;48.086;-1.606;2023-05-17T08:25:21;9.25;;;3.78;;
39276;SDS011;63149;48.086;-1.606;2023-05-17T08:27:49;8.85;;;3.15;;
39276;SDS011;63149;48.086;-1.606;2023-05-17T08:30:17;10.90;;;3.63;;
39276;SDS011;63149;48.086;-1.606;2023-05-17T08:32:44;12.35;;;3.60;;
39276;SDS011;63149;48.086;-1.606;2023-05-17T08:35:11;10.73;;;3.38;;
39276;SDS011;63149;48.086;-1.606;2023-05-17T08:37:38;8.45;;;3.20;;
39276;SDS011;63149;48.086;-1.606;2023-05-17T08:40:07;10.25;;;3.22;;
39276;SDS011;63149;48.086;-1.606;2023-05-17T08:42:35;11.30;;;4.40;;
39276;SDS011;63149;48.086;-1.606;2023-05-17T08:45:05;7.03;;;3.20;;
39276;SDS011;63149;48.086;-1.606;2023-05-17T08:47:34;8.85;;;3.13;;
39276;SDS011;63149;48.086;-1.606;2023-05-17T08:50:02;7.13;;;3.47;;
39276;SDS011;63149;48.086;-1.606;2023-05-17T08:52:30;8.85;;;3.58;;
39276;SDS011;63149;48.086;-1.606;2023-05-17T08:54:57;10.75;;;4.65;;
39276;SDS011;63149;48.086;-1.606;2023-05-17T08:57:26;10.27;;;3.88;;
39276;SDS011;63149;48.086;-1.606;2023-05-17T08:59:55;13.98;;;4.15;;
39276;SDS011;63149;48.086;-1.606;2023-05-17T09:02:25;11.30;;;3.92;;
39276;SDS011;63149;48.086;-1.606;2023-05-17T09:04:54;11.73;;;4.80;;
39276;SDS011;63149;48.086;-1.606;2023-05-17T09:07:22;12.02;;;4.47;;
39276;SDS011;63149;48.086;-1.606;2023-05-17T09:09:49;11.75;;;4.53;;
39276;SDS011;63149;48.086;-1.606;2023-05-17T09:12:18;9.05;;;3.85;;
39276;SDS011;63149;48.086;-1.606;2023-05-17T09:14:45;16.13;;;4.70;;
39276;SDS011;63149;48.086;-1.606;2023-05-17T09:17:13;7.13;;;3.90;;
39276;SDS011;63149;48.086;-1.606;2023-05-17T09:19:43;10.38;;;4.55;;
39276;SDS011;63149;48.086;-1.606;2023-05-17T09:22:11;10.80;;;4.10;;
39276;SDS011;63149;48.086;-1.606;2023-05-17T09:24:40;8.10;;;4.78;;
39276;SDS011;63149;48.086;-1.606;2023-05-17T09:27:07;14.10;;;5.13;;
39276;SDS011;63149;48.086;-1.606;2023-05-17T09:29:34;9.57;;;4.10;;
39276;SDS011;63149;48.086;-1.606;2023-05-17T09:32:13;9.63;;;4.30;;
39276;SDS011;63149;48.086;-1.606;2023-05-17T09:34:44;12.45;;;4.78;;
39276;SDS011;63149;48.086;-1.606;2023-05-17T09:37:12;12.02;;;4.63;;
39276;SDS011;63149;48.086;-1.606;2023-05-17T09:39:40;12.70;;;4.85;;
39276;SDS011;63149;48.086;-1.606;2023-05-17T09:42:08;12.98;;;5.53;;
39276;SDS011;63149;48.086;-1.606;2023-05-17T09:44:48;10.70;;;5.13;;
39276;SDS011;63149;48.086;-1.606;2023-05-17T09:47:23;13.05;;;5.20;;
39276;SDS011;63149;48.086;-1.606;2023-05-17T09:49:53;10.68;;;5.07;;
39276;SDS011;63149;48.086;-1.606;2023-05-17T09:52:21;13.02;;;5.43;;
39276;SDS011;63149;48.086;-1.606;2023-05-17T09:54:52;10.35;;;4.68;;
39276;SDS011;63149;48.086;-1.606;2023-05-17T09:57:20;9.77;;;4.70;;
39276;SDS011;63149;48.086;-1.606;2023-05-17T09:59:48;15.02;;;4.95;;
39276;SDS011;63149;48.086;-1.606;2023-05-17T10:02:22;9.55;;;4.38;;
39276;SDS011;63149;48.086;-1.606;2023-05-17T10:04:54;7.53;;;4.50;;
39276;SDS011;63149;48.086;-1.606;2023-05-17T10:07:23;10.43;;;4.20;;
39276;SDS011;63149;48.086;-1.606;2023-05-17T10:09:52;12.05;;;4.50;;
39276;SDS011;63149;48.086;-1.606;2023-05-17T10:12:21;9.95;;;4.40;;
39276;SDS011;63149;48.086;-1.606;2023-05-17T10:14:49;10.35;;;4.30;;
39276;SDS011;63149;48.086;-1.606;2023-05-17T10:17:19;8.73;;;4.50;;
39276;SDS011;63149;48.086;-1.606;2023-05-17T10:19:47;10.55;;;4.82;;
39276;SDS011;63149;48.086;-1.606;2023-05-17T10:22:16;8.00;;;4.28;;
39276;SDS011;63149;48.086;-1.606;2023-05-17T10:24:46;10.68;;;5.03;;
39276;SDS011;63149;48.086;-1.606;2023-05-17T10:27:13;10.85;;;4.43;;
39276;SDS011;63149;48.086;-1.606;2023-05-17T10:29:41;9.27;;;4.72;;
39276;SDS011;63149;48.086;-1.606;2023-05-17T10:32:10;8.48;;;4.65;;
39276;SDS011;63149;48.086;-1.606;2023-05-17T10:37:08;10.95;;;4.95;;
39276;SDS011;63149;48.086;-1.606;2023-05-17T10:39:38;10.43;;;4.43;;
39276;SDS011;63149;48.086;-1.606;2023-05-17T10:42:11;9.32;;;4.50;;
39276;SDS011;63149;48.086;-1.606;2023-05-17T10:44:41;11.93;;;4.43;;
39276;SDS011;63149;48.086;-1.606;2023-05-17T10:47:09;8.75;;;5.70;;
39276;SDS011;63149;48.086;-1.606;2023-05-17T10:49:36;9.02;;;4.75;;
39276;SDS011;63149;48.086;-1.606;2023-05-17T10:52:11;11.60;;;5.43;;
39276;SDS011;63149;48.086;-1.606;2023-05-17T10:54:41;10.35;;;4.95;;
39276;SDS011;63149;48.086;-1.606;2023-05-17T10:57:17;6.82;;;4.50;;
39276;SDS011;63149;48.086;-1.606;2023-05-17T10:59:55;8.95;;;4.55;;
39276;SDS011;63149;48.086;-1.606;2023-05-17T11:02:23;7.50;;;3.92;;
39276;SDS011;63149;48.086;-1.606;2023-05-17T11:04:51;8.52;;;4.20;;
39276;SDS011;63149;48.086;-1.606;2023-05-17T11:07:29;6.90;;;4.47;;
39276;SDS011;63149;48.086;-1.606;2023-05-17T11:10:06;7.20;;;3.97;;
39276;SDS011;63149;48.086;-1.606;2023-05-17T11:12:37;9.20;;;4.20;;
39276;SDS011;63149;48.086;-1.606;2023-05-17T11:15:07;8.10;;;3.85;;
39276;SDS011;63149;48.086;-1.606;2023-05-17T11:17:36;7.18;;;3.50;;
39276;SDS011;63149;48.086;-1.606;2023-05-17T11:20:30;6.25;;;3.30;;
39276;SDS011;63149;48.086;-1.606;2023-05-17T11:23:01;5.97;;;3.47;;
39276;SDS011;63149;48.086;-1.606;2023-05-17T11:25:31;4.85;;;3.30;;
39276;SDS011;63149;48.086;-1.606;2023-05-17T11:27:59;4.80;;;2.97;;
39276;SDS011;63149;48.086;-1.606;2023-05-17T11:30:31;5.38;;;2.75;;
39276;SDS011;63149;48.086;-1.606;2023-05-17T11:33:00;6.05;;;3.25;;
39276;SDS011;63149;48.086;-1.606;2023-05-17T11:35:32;5.25;;;3.40;;
39276;SDS011;63149;48.086;-1.606;2023-05-17T11:40:55;4.15;;;2.75;;
39276;SDS011;63149;48.086;-1.606;2023-05-17T11:43:23;6.40;;;2.88;;
39276;SDS011;63149;48.086;-1.606;2023-05-17T11:45:52;4.43;;;2.50;;
39276;SDS011;63149;48.086;-1.606;2023-05-17T11:48:22;7.15;;;2.92;;
39276;SDS011;63149;48.086;-1.606;2023-05-17T11:50:51;6.00;;;2.97;;
39276;SDS011;63149;48.086;-1.606;2023-05-17T11:53:20;7.03;;;2.73;;
39276;SDS011;63149;48.086;-1.606;2023-05-17T11:55:47;6.00;;;2.90;;
39276;SDS011;63149;48.086;-1.606;2023-05-17T11:58:18;5.55;;;2.55;;
39276;SDS011;63149;48.086;-1.606;2023-05-17T12:00:50;6.15;;;2.95;;
39276;SDS011;63149;48.086;-1.606;2023-05-17T12:03:18;7.13;;;2.95;;
39276;SDS011;63149;48.086;-1.606;2023-05-17T12:05:47;5.60;;;3.47;;
39276;SDS011;63149;48.086;-1.606;2023-05-17T12:08:15;5.07;;;2.75;;
39276;SDS011;63149;48.086;-1.606;2023-05-17T12:10:46;4.63;;;2.65;;
39276;SDS011;63149;48.086;-1.606;2023-05-17T12:13:14;4.60;;;2.90;;
39276;SDS011;63149;48.086;-1.606;2023-05-17T12:15:44;4.30;;;2.35;;
39276;SDS011;63149;48.086;-1.606;2023-05-17T12:18:13;3.90;;;2.78;;
39276;SDS011;63149;48.086;-1.606;2023-05-17T12:20:56;3.13;;;2.33;;
39276;SDS011;63149;48.086;-1.606;2023-05-17T12:23:24;9.60;;;2.70;;
39276;SDS011;63149;48.086;-1.606;2023-05-17T12:26:00;6.78;;;3.30;;
39276;SDS011;63149;48.086;-1.606;2023-05-17T12:28:35;6.75;;;3.15;;
39276;SDS011;63149;48.086;-1.606;2023-05-17T12:31:05;7.30;;;2.72;;
39276;SDS011;63149;48.086;-1.606;2023-05-17T12:33:35;5.47;;;2.50;;
39276;SDS011;63149;48.086;-1.606;2023-05-17T12:36:05;3.63;;;2.63;;
39276;SDS011;63149;48.086;-1.606;2023-05-17T12:38:34;5.20;;;2.58;;
39276;SDS011;63149;48.086;-1.606;2023-05-17T12:41:03;5.22;;;2.60;;
39276;SDS011;63149;48.086;-1.606;2023-05-17T12:43:32;3.70;;;2.50;;
39276;SDS011;63149;48.086;-1.606;2023-05-17T12:46:05;4.93;;;2.50;;
39276;SDS011;63149;48.086;-1.606;2023-05-17T12:48:34;5.20;;;3.08;;
39276;SDS011;63149;48.086;-1.606;2023-05-17T12:51:04;5.22;;;2.30;;
39276;SDS011;63149;48.086;-1.606;2023-05-17T12:53:36;4.55;;;2.22;;
39276;SDS011;63149;48.086;-1.606;2023-05-17T12:56:04;3.33;;;2.40;;
39276;SDS011;63149;48.086;-1.606;2023-05-17T12:58:32;4.75;;;2.30;;
39276;SDS011;63149;48.086;-1.606;2023-05-17T13:00:59;3.90;;;2.60;;
39276;SDS011;63149;48.086;-1.606;2023-05-17T13:03:28;4.60;;;2.58;;
39276;SDS011;63149;48.086;-1.606;2023-05-17T13:05:57;4.50;;;2.80;;
39276;SDS011;63149;48.086;-1.606;2023-05-17T13:08:25;4.10;;;2.38;;
39276;SDS011;63149;48.086;-1.606;2023-05-17T13:10:51;3.47;;;2.50;;
39276;SDS011;63149;48.086;-1.606;2023-05-17T13:13:18;4.18;;;2.53;;
39276;SDS011;63149;48.086;-1.606;2023-05-17T13:15:46;3.97;;;2.72;;
39276;SDS011;63149;48.086;-1.606;2023-05-17T13:18:13;4.05;;;2.55;;
39276;SDS011;63149;48.086;-1.606;2023-05-17T13:20:42;4.60;;;2.65;;
39276;SDS011;63149;48.086;-1.606;2023-05-17T13:23:09;3.97;;;2.38;;
39276;SDS011;63149;48.086;-1.606;2023-05-17T13:25:35;3.10;;;2.40;;
39276;SDS011;63149;48.086;-1.606;2023-05-17T13:28:02;3.88;;;2.38;;
39276;SDS011;63149;48.086;-1.606;2023-05-17T13:30:30;4.00;;;2.25;;
39276;SDS011;63149;48.086;-1.606;2023-05-17T13:32:56;3.95;;;2.20;;
39276;SDS011;63149;48.086;-1.606;2023-05-17T13:35:24;3.15;;;2.38;;
39276;SDS011;63149;48.086;-1.606;2023-05-17T13:37:52;3.70;;;2.50;;
39276;SDS011;63149;48.086;-1.606;2023-05-17T13:40:21;4.30;;;2.70;;
39276;SDS011;63149;48.086;-1.606;2023-05-17T13:42:49;4.05;;;2.40;;
39276;SDS011;63149;48.086;-1.606;2023-05-17T13:45:16;7.22;;;2.70;;
39276;SDS011;63149;48.086;-1.606;2023-05-17T13:47:43;4.38;;;2.65;;
39276;SDS011;63149;48.086;-1.606;2023-05-17T13:50:10;4.70;;;2.63;;
39276;SDS011;63149;48.086;-1.606;2023-05-17T13:52:39;4.22;;;2.78;;
39276;SDS011;63149;48.086;-1.606;2023-05-17T13:55:09;5.15;;;2.90;;
39276;SDS011;63149;48.086;-1.606;2023-05-17T13:57:36;5.30;;;2.75;;
39276;SDS011;63149;48.086;-1.606;2023-05-17T14:00:04;6.07;;;2.80;;
39276;SDS011;63149;48.086;-1.606;2023-05-17T14:02:31;7.57;;;2.70;;
39276;SDS011;63149;48.086;-1.606;2023-05-17T14:04:58;3.58;;;2.90;;
39276;SDS011;63149;48.086;-1.606;2023-05-17T14:07:26;4.07;;;2.80;;
39276;SDS011;63149;48.086;-1.606;2023-05-17T14:09:53;3.67;;;2.22;;
39276;SDS011;63149;48.086;-1.606;2023-05-17T14:12:23;5.88;;;2.72;;
39276;SDS011;63149;48.086;-1.606;2023-05-17T14:14:50;4.32;;;2.45;;
39276;SDS011;63149;48.086;-1.606;2023-05-17T14:17:17;4.15;;;3.03;;
39276;SDS011;63149;48.086;-1.606;2023-05-17T14:19:44;3.92;;;2.70;;
39276;SDS011;63149;48.086;-1.606;2023-05-17T14:22:12;4.82;;;2.67;;
39276;SDS011;63149;48.086;-1.606;2023-05-17T14:24:39;4.88;;;2.75;;
39276;SDS011;63149;48.086;-1.606;2023-05-17T14:27:06;3.33;;;2.45;;
39276;SDS011;63149;48.086;-1.606;2023-05-17T14:29:35;4.78;;;2.63;;
39276;SDS011;63149;48.086;-1.606;2023-05-17T14:32:02;6.38;;;2.40;;
39276;SDS011;63149;48.086;-1.606;2023-05-17T14:34:29;3.42;;;2.55;;
39276;SDS011;63149;48.086;-1.606;2023-05-17T14:36:56;3.20;;;2.50;;
39276;SDS011;63149;48.086;-1.606;2023-05-17T14:39:24;4.28;;;2.72;;
39276;SDS011;63149;48.086;-1.606;2023-05-17T14:41:51;3.95;;;2.95;;
39276;SDS011;63149;48.086;-1.606;2023-05-17T14:44:18;6.78;;;2.63;;
39276;SDS011;63149;48.086;-1.606;2023-05-17T14:46:47;6.47;;;2.45;;
39276;SDS011;63149;48.086;-1.606;2023-05-17T14:49:14;5.78;;;2.70;;
39276;SDS011;63149;48.086;-1.606;2023-05-17T14:51:41;2.53;;;2.20;;
39276;SDS011;63149;48.086;-1.606;2023-05-17T14:54:09;4.22;;;2.40;;
39276;SDS011;63149;48.086;-1.606;2023-05-17T14:56:36;6.90;;;2.50;;
39276;SDS011;63149;48.086;-1.606;2023-05-17T14:59:03;4.75;;;2.17;;
39276;SDS011;63149;48.086;-1.606;2023-05-17T15:01:31;3.13;;;2.13;;
39276;SDS011;63149;48.086;-1.606;2023-05-17T15:03:59;4.15;;;2.10;;
39276;SDS011;63149;48.086;-1.606;2023-05-17T15:06:26;5.38;;;2.70;;
39276;SDS011;63149;48.086;-1.606;2023-05-17T15:08:54;4.50;;;2.42;;
39276;SDS011;63149;48.086;-1.606;2023-05-17T15:11:21;3.45;;;2.60;;
39276;SDS011;63149;48.086;-1.606;2023-05-17T15:13:48;4.43;;;2.55;;
39276;SDS011;63149;48.086;-1.606;2023-05-17T15:16:15;5.53;;;2.55;;
39276;SDS011;63149;48.086;-1.606;2023-05-17T15:18:43;4.13;;;2.53;;
39276;SDS011;63149;48.086;-1.606;2023-05-17T15:21:11;4.43;;;2.38;;
39276;SDS011;63149;48.086;-1.606;2023-05-17T15:23:38;4.40;;;2.22;;
39276;SDS011;63149;48.086;-1.606;2023-05-17T15:26:06;4.25;;;2.38;;
39276;SDS011;63149;48.086;-1.606;2023-05-17T15:28:33;5.80;;;2.70;;
39276;SDS011;63149;48.086;-1.606;2023-05-17T15:31:00;3.67;;;2.30;;
39276;SDS011;63149;48.086;-1.606;2023-05-17T15:33:30;4.68;;;2.20;;
39276;SDS011;63149;48.086;-1.606;2023-05-17T15:35:57;4.90;;;2.70;;
39276;SDS011;63149;48.086;-1.606;2023-05-17T15:38:26;4.03;;;2.75;;
39276;SDS011;63149;48.086;-1.606;2023-05-17T15:40:59;4.10;;;2.38;;
39276;SDS011;63149;48.086;-1.606;2023-05-17T15:43:27;3.75;;;2.22;;
39276;SDS011;63149;48.086;-1.606;2023-05-17T15:45:54;3.22;;;2.33;;
39276;SDS011;63149;48.086;-1.606;2023-05-17T15:48:22;5.55;;;2.53;;
39276;SDS011;63149;48.086;-1.606;2023-05-17T15:50:52;5.43;;;2.60;;
39276;SDS011;63149;48.086;-1.606;2023-05-17T15:53:20;5.63;;;2.25;;
39276;SDS011;63149;48.086;-1.606;2023-05-17T15:55:48;3.67;;;2.22;;
39276;SDS011;63149;48.086;-1.606;2023-05-17T15:58:16;4.45;;;2.50;;
39276;SDS011;63149;48.086;-1.606;2023-05-17T16:00:43;4.32;;;2.15;;
39276;SDS011;63149;48.086;-1.606;2023-05-17T16:03:10;4.60;;;3.05;;
39276;SDS011;63149;48.086;-1.606;2023-05-17T16:05:38;5.25;;;2.63;;
39276;SDS011;63149;48.086;-1.606;2023-05-17T16:08:05;4.45;;;2.45;;
39276;SDS011;63149;48.086;-1.606;2023-05-17T16:10:32;5.47;;;2.33;;
39276;SDS011;63149;48.086;-1.606;2023-05-17T16:13:01;4.55;;;2.90;;
39276;SDS011;63149;48.086;-1.606;2023-05-17T16:15:28;6.20;;;2.50;;
39276;SDS011;63149;48.086;-1.606;2023-05-17T16:17:56;5.25;;;2.42;;
39276;SDS011;63149;48.086;-1.606;2023-05-17T16:20:23;5.95;;;2.30;;
39276;SDS011;63149;48.086;-1.606;2023-05-17T16:22:50;6.28;;;3.17;;
39276;SDS011;63149;48.086;-1.606;2023-05-17T16:25:18;5.93;;;3.50;;
39276;SDS011;63149;48.086;-1.606;2023-05-17T16:27:45;8.52;;;2.88;;
39276;SDS011;63149;48.086;-1.606;2023-05-17T16:30:14;5.00;;;2.85;;
39276;SDS011;63149;48.086;-1.606;2023-05-17T16:32:42;7.47;;;3.30;;
39276;SDS011;63149;48.086;-1.606;2023-05-17T16:35:09;8.13;;;3.95;;
39276;SDS011;63149;48.086;-1.606;2023-05-17T16:37:38;10.00;;;2.80;;
39276;SDS011;63149;48.086;-1.606;2023-05-17T16:40:06;9.45;;;3.33;;
39276;SDS011;63149;48.086;-1.606;2023-05-17T16:42:33;6.90;;;3.38;;
39276;SDS011;63149;48.086;-1.606;2023-05-17T16:45:00;5.57;;;3.35;;
39276;SDS011;63149;48.086;-1.606;2023-05-17T16:47:29;6.57;;;3.35;;
39276;SDS011;63149;48.086;-1.606;2023-05-17T16:49:56;8.88;;;3.50;;
39276;SDS011;63149;48.086;-1.606;2023-05-17T16:52:25;7.00;;;3.28;;
39276;SDS011;63149;48.086;-1.606;2023-05-17T16:54:54;9.07;;;3.65;;
39276;SDS011;63149;48.086;-1.606;2023-05-17T16:57:27;8.88;;;3.25;;
39276;SDS011;63149;48.086;-1.606;2023-05-17T16:59:54;5.28;;;3.00;;
39276;SDS011;63149;48.086;-1.606;2023-05-17T17:02:21;8.30;;;3.00;;
39276;SDS011;63149;48.086;-1.606;2023-05-17T17:04:51;7.55;;;3.10;;
39276;SDS011;63149;48.086;-1.606;2023-05-17T17:07:18;7.07;;;3.55;;
39276;SDS011;63149;48.086;-1.606;2023-05-17T17:09:45;6.22;;;3.45;;
39276;SDS011;63149;48.086;-1.606;2023-05-17T17:12:13;10.35;;;3.58;;
39276;SDS011;63149;48.086;-1.606;2023-05-17T17:14:40;7.90;;;3.15;;
39276;SDS011;63149;48.086;-1.606;2023-05-17T17:17:07;6.90;;;3.33;;
39276;SDS011;63149;48.086;-1.606;2023-05-17T17:19:34;10.02;;;3.85;;
39276;SDS011;63149;48.086;-1.606;2023-05-17T17:22:03;8.73;;;3.80;;
39276;SDS011;63149;48.086;-1.606;2023-05-17T17:24:31;6.93;;;3.90;;
39276;SDS011;63149;48.086;-1.606;2023-05-17T17:26:59;6.05;;;3.00;;
39276;SDS011;63149;48.086;-1.606;2023-05-17T17:29:26;9.45;;;3.78;;
39276;SDS011;63149;48.086;-1.606;2023-05-17T17:31:54;8.07;;;3.78;;
39276;SDS011;63149;48.086;-1.606;2023-05-17T17:34:22;7.10;;;3.70;;
39276;SDS011;63149;48.086;-1.606;2023-05-17T17:36:49;7.55;;;3.53;;
39276;SDS011;63149;48.086;-1.606;2023-05-17T17:39:17;7.68;;;3.97;;
39276;SDS011;63149;48.086;-1.606;2023-05-17T17:41:44;5.88;;;3.17;;
39276;SDS011;63149;48.086;-1.606;2023-05-17T17:44:11;5.50;;;3.15;;
39276;SDS011;63149;48.086;-1.606;2023-05-17T17:46:39;9.20;;;4.25;;
39276;SDS011;63149;48.086;-1.606;2023-05-17T17:49:06;10.48;;;3.72;;
39276;SDS011;63149;48.086;-1.606;2023-05-17T17:51:33;9.93;;;3.78;;
39276;SDS011;63149;48.086;-1.606;2023-05-17T17:54:00;8.10;;;3.38;;
39276;SDS011;63149;48.086;-1.606;2023-05-17T17:56:31;6.68;;;3.53;;
39276;SDS011;63149;48.086;-1.606;2023-05-17T17:58:58;10.40;;;3.70;;
39276;SDS011;63149;48.086;-1.606;2023-05-17T18:01:25;9.95;;;3.60;;
39276;SDS011;63149;48.086;-1.606;2023-05-17T18:03:53;9.88;;;4.00;;
39276;SDS011;63149;48.086;-1.606;2023-05-17T18:06:21;5.78;;;3.28;;
39276;SDS011;63149;48.086;-1.606;2023-05-17T18:08:48;5.78;;;2.92;;
39276;SDS011;63149;48.086;-1.606;2023-05-17T18:11:16;9.30;;;3.80;;
39276;SDS011;63149;48.086;-1.606;2023-05-17T18:13:44;10.38;;;4.13;;
39276;SDS011;63149;48.086;-1.606;2023-05-17T18:16:11;8.27;;;3.30;;
39276;SDS011;63149;48.086;-1.606;2023-05-17T18:18:38;6.50;;;3.50;;
39276;SDS011;63149;48.086;-1.606;2023-05-17T18:21:06;6.60;;;3.72;;
39276;SDS011;63149;48.086;-1.606;2023-05-17T18:23:33;10.95;;;4.30;;
39276;SDS011;63149;48.086;-1.606;2023-05-17T18:26:00;9.23;;;4.13;;
39276;SDS011;63149;48.086;-1.606;2023-05-17T18:28:27;10.05;;;3.85;;
39276;SDS011;63149;48.086;-1.606;2023-05-17T18:30:56;5.97;;;3.45;;
39276;SDS011;63149;48.086;-1.606;2023-05-17T18:33:23;7.80;;;3.40;;
39276;SDS011;63149;48.086;-1.606;2023-05-17T18:35:51;6.05;;;3.30;;
39276;SDS011;63149;48.086;-1.606;2023-05-17T18:38:18;11.50;;;3.92;;
39276;SDS011;63149;48.086;-1.606;2023-05-17T18:40:45;11.02;;;3.67;;
39276;SDS011;63149;48.086;-1.606;2023-05-17T18:43:13;10.50;;;3.75;;
39276;SDS011;63149;48.086;-1.606;2023-05-17T18:45:40;6.43;;;3.70;;
39276;SDS011;63149;48.086;-1.606;2023-05-17T18:48:08;10.55;;;4.28;;
39276;SDS011;63149;48.086;-1.606;2023-05-17T18:50:36;7.47;;;3.38;;
39276;SDS011;63149;48.086;-1.606;2023-05-17T18:53:03;9.68;;;3.72;;
39276;SDS011;63149;48.086;-1.606;2023-05-17T18:55:30;10.70;;;4.90;;
39276;SDS011;63149;48.086;-1.606;2023-05-17T18:57:57;10.15;;;3.60;;
39276;SDS011;63149;48.086;-1.606;2023-05-17T19:00:25;8.13;;;3.95;;
39276;SDS011;63149;48.086;-1.606;2023-05-17T19:02:52;8.48;;;3.72;;
39276;SDS011;63149;48.086;-1.606;2023-05-17T19:05:21;8.80;;;3.90;;
39276;SDS011;63149;48.086;-1.606;2023-05-17T19:07:48;10.40;;;3.22;;
39276;SDS011;63149;48.086;-1.606;2023-05-17T19:10:15;9.52;;;4.05;;
39276;SDS011;63149;48.086;-1.606;2023-05-17T19:12:44;9.55;;;3.92;;
39276;SDS011;63149;48.086;-1.606;2023-05-17T19:15:11;8.25;;;3.92;;
39276;SDS011;63149;48.086;-1.606;2023-05-17T19:17:39;10.07;;;4.00;;
39276;SDS011;63149;48.086;-1.606;2023-05-17T19:20:07;6.97;;;3.40;;
39276;SDS011;63149;48.086;-1.606;2023-05-17T19:22:35;12.30;;;4.38;;
39276;SDS011;63149;48.086;-1.606;2023-05-17T19:25:03;15.00;;;4.38;;
39276;SDS011;63149;48.086;-1.606;2023-05-17T19:27:30;8.77;;;3.97;;
39276;SDS011;63149;48.086;-1.606;2023-05-17T19:29:57;7.80;;;4.43;;
39276;SDS011;63149;48.086;-1.606;2023-05-17T19:32:24;9.20;;;4.18;;
39276;SDS011;63149;48.086;-1.606;2023-05-17T19:34:52;11.50;;;4.57;;
39276;SDS011;63149;48.086;-1.606;2023-05-17T19:37:19;8.18;;;4.20;;
39276;SDS011;63149;48.086;-1.606;2023-05-17T19:39:48;9.68;;;3.80;;
39276;SDS011;63149;48.086;-1.606;2023-05-17T19:42:16;8.02;;;4.28;;